Time;durP1;ratioP1;P1;durP2;ratioP2;P2;SDS_P1;SDS_P2;PMS_P1;PMS_P2;Temp;Humidity;BMP_temperature;BMP_pressure;BME280_temperature;BME280_humidity;BME280_pressure;Samples;Min_cycle;Max_cycle;Signal;HPM_P1;HPM_P2
2021/03/21 00:01:12;;;;;;;9.03;7.23;;;;;;;;;;4985709;28;20204;-46
2021/03/21 00:03:37;;;;;;;9.37;7.17;;;;;;;;;;4981529;28;20226;-48
2021/03/21 00:06:05;;;;;;;10.60;6.97;;;;;;;;;;4977106;28;20266;-46
2021/03/21 00:08:32;;;;;;;10.43;7.60;;;;;;;;;;4985243;28;20275;-50
2021/03/21 00:11:06;;;;;;;10.87;8.77;;;;;;;;;;4981642;28;20196;-46
2021/03/21 00:13:32;;;;;;;10.60;9.10;;;;;;;;;;4985718;28;20180;-48
2021/03/21 00:15:59;;;;;;;9.63;8.63;;;;;;;;;;4975746;28;20700;-47
2021/03/21 00:18:29;;;;;;;13.60;9.07;;;;;;;;;;4984192;28;20267;-47
2021/03/21 00:20:56;;;;;;;12.90;9.73;;;;;;;;;;4983848;28;20242;-47
2021/03/21 00:23:22;;;;;;;10.77;8.87;;;;;;;;;;4986527;28;20278;-46
2021/03/21 00:25:48;;;;;;;10.73;9.33;;;;;;;;;;4990684;28;20294;-46
2021/03/21 00:28:19;;;;;;;12.07;9.43;;;;;;;;;;4984788;28;20196;-47
2021/03/21 00:30:46;;;;;;;11.27;9.07;;;;;;;;;;4984478;28;20211;-46
2021/03/21 00:33:16;;;;;;;11.40;8.70;;;;;;;;;;4980483;28;20187;-46
2021/03/21 00:35:42;;;;;;;9.43;8.43;;;;;;;;;;4979025;28;20239;-46
2021/03/21 00:38:15;;;;;;;11.83;9.20;;;;;;;;;;4972079;28;20844;-46
2021/03/21 00:40:40;;;;;;;10.03;8.20;;;;;;;;;;4980267;28;20200;-46
2021/03/21 00:43:06;;;;;;;10.97;8.10;;;;;;;;;;4985552;28;20192;-47
2021/03/21 00:45:31;;;;;;;10.30;7.60;;;;;;;;;;4989060;28;20216;-46
2021/03/21 00:47:56;;;;;;;9.90;8.07;;;;;;;;;;4983207;28;20441;-47
2021/03/21 00:50:29;;;;;;;11.63;8.27;;;;;;;;;;4971619;28;20195;-47
2021/03/21 00:52:55;;;;;;;9.53;8.13;;;;;;;;;;4975824;28;20203;-48
2021/03/21 00:55:21;;;;;;;9.90;7.70;;;;;;;;;;4983337;28;20212;-46
2021/03/21 00:57:46;;;;;;;8.50;7.43;;;;;;;;;;4985932;28;20648;-46
2021/03/21 01:00:33;;;;;;;9.73;7.90;;;;;;;;;;4985917;28;20228;-47
2021/03/21 01:02:59;;;;;;;10.20;8.23;;;;;;;;;;4985946;28;20610;-47
2021/03/21 01:05:31;;;;;;;11.73;8.23;;;;;;;;;;4988127;28;20307;-46
2021/03/21 01:07:57;;;;;;;10.03;8.27;;;;;;;;;;4982988;28;20188;-47
2021/03/21 01:10:27;;;;;;;7.60;6.77;;;;;;;;;;4986160;28;20646;-46
2021/03/21 01:12:57;;;;;;;9.13;6.83;;;;;;;;;;4987287;28;20695;-46
2021/03/21 01:15:25;;;;;;;6.97;6.27;;;;;;;;;;4982950;28;20214;-46
2021/03/21 01:17:50;;;;;;;8.77;6.47;;;;;;;;;;4989566;28;20188;-48
2021/03/21 01:20:20;;;;;;;7.63;6.07;;;;;;;;;;4985781;28;20199;-47
2021/03/21 01:22:47;;;;;;;6.80;5.60;;;;;;;;;;4989214;28;20231;-48
2021/03/21 01:25:13;;;;;;;8.03;6.23;;;;;;;;;;4991621;28;20211;-47
2021/03/21 01:27:38;;;;;;;10.47;8.23;;;;;;;;;;4983770;28;20188;-46
2021/03/21 01:30:06;;;;;;;12.50;8.87;;;;;;;;;;4964984;28;20250;-47
2021/03/21 01:32:32;;;;;;;11.87;8.97;;;;;;;;;;4971469;28;20189;-48
2021/03/21 01:34:57;;;;;;;10.73;8.40;;;;;;;;;;4988283;28;20230;-50
2021/03/21 01:37:22;;;;;;;11.37;7.83;;;;;;;;;;4991422;28;20195;-47
2021/03/21 01:39:47;;;;;;;10.13;7.60;;;;;;;;;;4965724;28;20188;-46
2021/03/21 01:42:15;;;;;;;13.00;8.13;;;;;;;;;;4989184;28;20306;-47
2021/03/21 01:44:40;;;;;;;7.43;6.47;;;;;;;;;;4983200;28;20276;-47
2021/03/21 01:47:34;;;;;;;8.53;6.40;;;;;;;;;;4983095;28;20736;-46
2021/03/21 01:50:19;;;;;;;10.33;6.00;;;;;;;;;;4987943;28;20207;-46
2021/03/21 01:52:45;;;;;;;7.93;6.20;;;;;;;;;;4987991;28;20258;-47
2021/03/21 01:55:13;;;;;;;7.63;4.87;;;;;;;;;;4986617;28;20220;-46
2021/03/21 01:57:39;;;;;;;5.17;4.07;;;;;;;;;;4983751;28;20672;-46
2021/03/21 02:00:07;;;;;;;6.97;5.17;;;;;;;;;;4989516;28;20208;-47
2021/03/21 02:02:33;;;;;;;6.07;4.50;;;;;;;;;;4986280;28;20250;-48
2021/03/21 02:04:58;;;;;;;7.67;5.07;;;;;;;;;;4970864;28;20223;-46
2021/03/21 02:07:57;;;;;;;5.60;4.90;;;;;;;;;;4989396;28;20283;-47
2021/03/21 02:10:40;;;;;;;9.50;5.00;;;;;;;;;;4988290;28;20193;-47
2021/03/21 02:13:13;;;;;;;7.93;5.20;;;;;;;;;;4982825;28;20547;-47
2021/03/21 02:15:48;;;;;;;7.17;5.23;;;;;;;;;;4987934;28;20218;-47
2021/03/21 02:18:45;;;;;;;7.17;5.80;;;;;;;;;;4987444;28;20188;-48
2021/03/21 02:21:27;;;;;;;6.33;5.50;;;;;;;;;;4978477;28;20287;-46
2021/03/21 02:24:17;;;;;;;9.00;7.17;;;;;;;;;;4986375;28;20208;-45
2021/03/21 02:27:05;;;;;;;9.10;7.97;;;;;;;;;;4985594;28;20660;-48
2021/03/21 02:29:40;;;;;;;9.57;7.80;;;;;;;;;;4966734;28;20690;-47
2021/03/21 02:32:17;;;;;;;12.73;10.43;;;;;;;;;;4989147;28;20183;-48
2021/03/21 02:35:02;;;;;;;17.13;9.53;;;;;;;;;;4980485;28;20207;-46
2021/03/21 02:37:34;;;;;;;9.83;7.93;;;;;;;;;;4984289;28;20199;-47
2021/03/21 02:40:19;;;;;;;8.87;7.50;;;;;;;;;;4986733;28;20200;-48
2021/03/21 02:42:51;;;;;;;10.60;8.60;;;;;;;;;;4986110;28;20203;-47
2021/03/21 02:45:24;;;;;;;7.17;6.47;;;;;;;;;;4981006;28;20707;-47
2021/03/21 02:47:50;;;;;;;9.13;6.67;;;;;;;;;;4968655;28;20210;-47
2021/03/21 02:50:22;;;;;;;6.23;5.63;;;;;;;;;;4987968;28;20688;-48
2021/03/21 02:52:53;;;;;;;8.60;6.40;;;;;;;;;;4985449;28;20243;-46
2021/03/21 02:55:30;;;;;;;11.97;7.43;;;;;;;;;;4981934;28;20226;-47
2021/03/21 02:58:05;;;;;;;9.07;7.50;;;;;;;;;;4987639;28;20843;-47
2021/03/21 03:00:35;;;;;;;8.23;7.13;;;;;;;;;;4984883;28;20682;-48
2021/03/21 03:03:04;;;;;;;12.50;7.70;;;;;;;;;;4978260;28;20291;-47
2021/03/21 03:05:45;;;;;;;13.50;8.43;;;;;;;;;;4983834;28;20639;-47
2021/03/21 03:08:23;;;;;;;8.70;7.80;;;;;;;;;;4975437;28;20187;-46
2021/03/21 03:10:54;;;;;;;10.27;7.93;;;;;;;;;;4981507;28;20200;-47
2021/03/21 03:13:27;;;;;;;10.20;7.83;;;;;;;;;;4983562;28;20279;-49
2021/03/21 03:16:00;;;;;;;11.67;9.40;;;;;;;;;;4974186;28;20204;-47
2021/03/21 03:18:40;;;;;;;10.40;7.13;;;;;;;;;;4986087;28;20636;-48
2021/03/21 03:21:14;;;;;;;8.50;7.60;;;;;;;;;;4980177;28;20246;-46
2021/03/21 03:23:51;;;;;;;9.57;7.73;;;;;;;;;;4981212;28;20204;-46
2021/03/21 03:26:24;;;;;;;9.80;7.70;;;;;;;;;;4987012;28;20219;-47
2021/03/21 03:29:10;;;;;;;11.73;7.67;;;;;;;;;;4959261;28;20196;-47
2021/03/21 03:31:42;;;;;;;12.90;9.37;;;;;;;;;;4984755;28;20290;-47
2021/03/21 03:34:08;;;;;;;10.87;9.03;;;;;;;;;;4983254;28;20194;-47
2021/03/21 03:36:34;;;;;;;9.53;7.93;;;;;;;;;;4978492;28;20188;-47
2021/03/21 03:38:59;;;;;;;10.93;7.60;;;;;;;;;;4983146;28;20278;-47
2021/03/21 03:41:41;;;;;;;9.10;7.57;;;;;;;;;;4985398;28;20270;-47
2021/03/21 03:44:57;;;;;;;9.07;7.60;;;;;;;;;;4986382;28;20239;-48
2021/03/21 03:47:46;;;;;;;10.57;9.00;;;;;;;;;;4920795;29;20190;-47
2021/03/21 03:50:17;;;;;;;13.47;8.77;;;;;;;;;;4985313;28;20266;-46
2021/03/21 03:53:06;;;;;;;10.57;8.00;;;;;;;;;;4987802;28;20195;-47
2021/03/21 03:55:48;;;;;;;10.43;8.40;;;;;;;;;;4982472;28;20446;-46
2021/03/21 03:58:25;;;;;;;12.00;8.97;;;;;;;;;;4984787;28;20195;-46
2021/03/21 04:01:02;;;;;;;12.47;8.47;;;;;;;;;;4985282;28;20193;-47
2021/03/21 04:03:38;;;;;;;11.67;8.97;;;;;;;;;;4982116;28;20202;-46
2021/03/21 04:06:10;;;;;;;10.97;7.80;;;;;;;;;;4966413;28;20282;-46
2021/03/21 04:08:48;;;;;;;11.57;9.87;;;;;;;;;;4984942;28;20189;-46
2021/03/21 04:11:26;;;;;;;10.53;9.40;;;;;;;;;;4970764;28;20834;-46
2021/03/21 04:13:58;;;;;;;13.93;9.97;;;;;;;;;;4987283;28;20202;-47
2021/03/21 04:16:30;;;;;;;11.43;9.73;;;;;;;;;;4994195;28;20777;-47
2021/03/21 04:19:05;;;;;;;9.80;8.33;;;;;;;;;;4990993;28;20187;-46
2021/03/21 04:21:40;;;;;;;12.87;8.97;;;;;;;;;;4989336;28;20191;-47
2021/03/21 04:24:23;;;;;;;13.17;9.67;;;;;;;;;;4989332;28;20263;-46
2021/03/21 04:27:10;;;;;;;11.23;9.67;;;;;;;;;;4987476;28;20281;-47
2021/03/21 04:29:51;;;;;;;11.23;9.37;;;;;;;;;;4990704;28;20486;-47
2021/03/21 04:32:23;;;;;;;11.37;9.57;;;;;;;;;;4984727;28;20648;-47
2021/03/21 04:34:52;;;;;;;12.30;9.07;;;;;;;;;;4984935;28;20299;-46
2021/03/21 04:37:19;;;;;;;11.47;9.47;;;;;;;;;;4987361;28;20211;-47
2021/03/21 04:39:47;;;;;;;10.30;8.93;;;;;;;;;;4987135;28;20203;-47
2021/03/21 04:42:24;;;;;;;11.53;8.83;;;;;;;;;;4985520;28;20648;-47
2021/03/21 04:44:56;;;;;;;10.03;7.70;;;;;;;;;;4990011;28;20207;-47
2021/03/21 04:47:34;;;;;;;12.17;8.47;;;;;;;;;;4986881;28;20200;-47
2021/03/21 04:50:00;;;;;;;18.33;12.77;;;;;;;;;;4986312;28;20204;-50
2021/03/21 04:53:01;;;;;;;14.77;11.10;;;;;;;;;;4972745;28;20188;-47
2021/03/21 04:55:33;;;;;;;16.43;11.03;;;;;;;;;;4907386;29;20214;-47
2021/03/21 04:58:02;;;;;;;18.80;11.53;;;;;;;;;;4961481;28;20227;-48
2021/03/21 05:00:31;;;;;;;14.50;11.37;;;;;;;;;;4982444;28;20279;-47
2021/03/21 05:03:04;;;;;;;16.17;11.40;;;;;;;;;;4966522;28;20192;-48
2021/03/21 05:05:33;;;;;;;14.03;10.60;;;;;;;;;;4986531;28;20216;-47
2021/03/21 05:08:10;;;;;;;12.80;9.43;;;;;;;;;;4986691;28;20280;-48
2021/03/21 05:10:43;;;;;;;14.30;10.47;;;;;;;;;;4985526;28;20210;-46
2021/03/21 05:13:32;;;;;;;16.30;10.13;;;;;;;;;;4987607;28;20196;-46
2021/03/21 05:16:10;;;;;;;12.17;8.57;;;;;;;;;;4987828;28;20726;-46
2021/03/21 05:18:56;;;;;;;11.13;8.80;;;;;;;;;;4985304;28;20207;-47
2021/03/21 05:21:33;;;;;;;12.63;8.77;;;;;;;;;;4989330;28;20227;-46
2021/03/21 05:24:12;;;;;;;11.77;8.63;;;;;;;;;;4989876;28;20214;-46
2021/03/21 05:26:47;;;;;;;14.23;8.83;;;;;;;;;;4984269;28;20192;-47
2021/03/21 05:29:51;;;;;;;9.00;6.70;;;;;;;;;;4984199;28;20270;-47
2021/03/21 05:32:18;;;;;;;7.77;6.63;;;;;;;;;;4987983;28;20270;-47
2021/03/21 05:34:46;;;;;;;8.43;5.90;;;;;;;;;;4970664;28;20228;-46
2021/03/21 05:37:20;;;;;;;7.30;5.30;;;;;;;;;;4988090;28;20184;-47
2021/03/21 05:40:00;;;;;;;6.80;5.00;;;;;;;;;;4983610;28;20195;-47
2021/03/21 05:42:50;;;;;;;8.03;5.17;;;;;;;;;;4984639;28;20615;-47
2021/03/21 05:45:35;;;;;;;6.60;4.90;;;;;;;;;;4980656;28;20711;-46
2021/03/21 05:48:28;;;;;;;6.83;4.40;;;;;;;;;;4983625;28;20189;-47
2021/03/21 05:51:11;;;;;;;5.90;3.83;;;;;;;;;;4978494;28;20203;-47
2021/03/21 05:54:14;;;;;;;5.33;4.33;;;;;;;;;;4985947;28;20665;-47
2021/03/21 05:57:10;;;;;;;5.27;4.20;;;;;;;;;;4984006;28;20194;-46
2021/03/21 06:00:11;;;;;;;4.07;3.67;;;;;;;;;;4971786;28;20291;-46
2021/03/21 06:03:01;;;;;;;3.23;2.90;;;;;;;;;;4981331;28;20199;-46
2021/03/21 06:05:57;;;;;;;3.17;2.87;;;;;;;;;;4985358;28;20557;-46
2021/03/21 06:08:31;;;;;;;2.83;2.63;;;;;;;;;;4987463;28;20196;-47
2021/03/21 06:11:32;;;;;;;3.17;2.60;;;;;;;;;;4983689;28;20210;-48
2021/03/21 06:14:07;;;;;;;2.80;2.53;;;;;;;;;;4958036;28;20199;-46
2021/03/21 06:17:13;;;;;;;3.67;2.20;;;;;;;;;;4987065;28;20187;-47
2021/03/21 06:19:47;;;;;;;2.60;2.10;;;;;;;;;;4986713;28;20211;-48
2021/03/21 06:22:38;;;;;;;3.73;2.47;;;;;;;;;;4985113;28;20247;-49
2021/03/21 06:25:35;;;;;;;2.37;2.17;;;;;;;;;;4971185;28;20239;-45
2021/03/21 06:28:16;;;;;;;3.00;2.20;;;;;;;;;;4988462;28;20226;-46
2021/03/21 06:31:03;;;;;;;3.80;2.47;;;;;;;;;;4968159;28;20287;-47
2021/03/21 06:33:40;;;;;;;3.30;2.07;;;;;;;;;;4968599;28;20572;-48
2021/03/21 06:36:09;;;;;;;3.83;1.67;;;;;;;;;;4969105;28;20203;-46
2021/03/21 06:38:51;;;;;;;3.37;1.90;;;;;;;;;;4985139;28;20195;-46
2021/03/21 06:41:49;;;;;;;3.60;1.73;;;;;;;;;;4988821;28;20184;-45
2021/03/21 06:44:53;;;;;;;3.77;2.23;;;;;;;;;;4964857;28;20637;-46
2021/03/21 06:47:31;;;;;;;4.63;2.63;;;;;;;;;;4957543;28;20739;-46
2021/03/21 06:50:06;;;;;;;4.63;2.50;;;;;;;;;;4982482;28;20197;-46
2021/03/21 06:52:43;;;;;;;5.17;2.60;;;;;;;;;;4985735;28;20215;-45
2021/03/21 06:55:16;;;;;;;4.27;2.60;;;;;;;;;;4985853;28;20215;-46
2021/03/21 06:58:10;;;;;;;9.00;2.83;;;;;;;;;;4987036;28;20685;-46
2021/03/21 07:00:44;;;;;;;3.97;2.87;;;;;;;;;;4988233;28;20726;-46
2021/03/21 07:03:18;;;;;;;4.50;2.90;;;;;;;;;;4981144;28;20310;-48
2021/03/21 07:06:18;;;;;;;5.60;2.90;;;;;;;;;;4979844;28;20208;-48
2021/03/21 07:09:24;;;;;;;7.17;2.60;;;;;;;;;;4975878;28;20184;-46
2021/03/21 07:12:37;;;;;;;5.40;2.60;;;;;;;;;;4984517;28;20184;-46
2021/03/21 07:15:33;;;;;;;5.73;2.77;;;;;;;;;;4953108;28;20311;-48
2021/03/21 07:18:31;;;;;;;5.63;3.17;;;;;;;;;;4977158;28;20184;-47
2021/03/21 07:21:20;;;;;;;3.80;2.83;;;;;;;;;;4985861;28;20539;-44
2021/03/21 07:24:16;;;;;;;7.70;3.17;;;;;;;;;;4982609;28;20256;-46
2021/03/21 07:27:12;;;;;;;3.63;2.67;;;;;;;;;;4979723;28;20184;-45
2021/03/21 07:29:48;;;;;;;4.83;3.30;;;;;;;;;;4984829;28;20190;-46
2021/03/21 07:32:41;;;;;;;5.60;2.70;;;;;;;;;;4986259;28;20211;-46
2021/03/21 07:35:14;;;;;;;4.50;2.77;;;;;;;;;;4978918;28;20204;-47
2021/03/21 07:37:45;;;;;;;5.67;2.60;;;;;;;;;;4976942;28;20227;-46
2021/03/21 07:40:25;;;;;;;6.03;2.27;;;;;;;;;;4985504;28;20207;-46
2021/03/21 07:43:16;;;;;;;5.43;2.40;;;;;;;;;;4966281;28;20672;-46
2021/03/21 07:45:41;;;;;;;5.97;2.20;;;;;;;;;;4981394;28;20215;-46
2021/03/21 07:48:14;;;;;;;7.20;2.30;;;;;;;;;;4989896;28;20184;-46
2021/03/21 07:50:52;;;;;;;8.37;2.53;;;;;;;;;;4983117;28;20191;-46
2021/03/21 07:53:32;;;;;;;9.97;2.40;;;;;;;;;;4988910;28;20668;-48
2021/03/21 07:56:23;;;;;;;9.33;2.67;;;;;;;;;;4986235;28;20619;-47
2021/03/21 07:59:06;;;;;;;8.97;2.30;;;;;;;;;;4989093;28;20200;-48
2021/03/21 08:01:31;;;;;;;8.00;2.30;;;;;;;;;;4992240;28;20196;-46
2021/03/21 08:04:07;;;;;;;15.10;2.97;;;;;;;;;;4983981;28;20672;-47
2021/03/21 08:06:37;;;;;;;16.33;2.67;;;;;;;;;;4987565;28;20192;-46
2021/03/21 08:09:16;;;;;;;14.37;2.77;;;;;;;;;;4971270;28;20227;-46
2021/03/21 08:11:58;;;;;;;16.60;3.00;;;;;;;;;;4991228;28;20176;-46
2021/03/21 08:14:39;;;;;;;20.47;3.90;;;;;;;;;;4986004;28;20183;-46
2021/03/21 08:17:14;;;;;;;15.77;3.17;;;;;;;;;;4983664;28;20177;-47
2021/03/21 08:19:39;;;;;;;13.00;3.03;;;;;;;;;;4982852;28;20191;-46
2021/03/21 08:22:13;;;;;;;16.73;4.27;;;;;;;;;;4986158;28;20188;-46
2021/03/21 08:24:42;;;;;;;21.83;3.50;;;;;;;;;;4970603;28;20251;-47
2021/03/21 08:27:21;;;;;;;13.43;3.27;;;;;;;;;;4989129;28;20234;-44
2021/03/21 08:30:04;;;;;;;21.57;3.63;;;;;;;;;;4969089;28;20234;-47
2021/03/21 08:32:31;;;;;;;12.37;3.40;;;;;;;;;;4987298;28;20184;-46
2021/03/21 08:35:22;;;;;;;15.63;3.33;;;;;;;;;;4983763;28;20539;-46
2021/03/21 08:37:53;;;;;;;23.70;4.60;;;;;;;;;;4987510;28;20196;-47
2021/03/21 08:40:21;;;;;;;25.27;4.83;;;;;;;;;;4990957;28;20192;-45
2021/03/21 08:42:50;;;;;;;21.23;4.80;;;;;;;;;;4981870;28;20666;-45
2021/03/21 08:45:23;;;;;;;20.00;4.00;;;;;;;;;;4987615;28;20700;-45
2021/03/21 08:48:16;;;;;;;19.80;3.93;;;;;;;;;;4987775;28;20188;-46
2021/03/21 08:50:44;;;;;;;20.13;4.53;;;;;;;;;;4964675;28;20274;-46
2021/03/21 08:53:28;;;;;;;20.00;4.30;;;;;;;;;;4968869;28;20446;-46
2021/03/21 08:56:11;;;;;;;19.50;4.70;;;;;;;;;;4984534;28;20239;-48
2021/03/21 08:58:37;;;;;;;22.33;4.37;;;;;;;;;;4977256;28;20188;-47
2021/03/21 09:01:14;;;;;;;19.93;3.73;;;;;;;;;;4987721;28;20188;-46
2021/03/21 09:03:39;;;;;;;24.00;4.77;;;;;;;;;;4987151;28;20254;-48
2021/03/21 09:06:05;;;;;;;19.90;3.87;;;;;;;;;;4988829;28;20211;-46
2021/03/21 09:08:33;;;;;;;23.53;4.63;;;;;;;;;;4989299;28;20630;-47
2021/03/21 09:11:01;;;;;;;20.10;3.83;;;;;;;;;;4987890;28;20250;-46
2021/03/21 09:13:32;;;;;;;28.93;5.90;;;;;;;;;;4983019;28;20599;-47
2021/03/21 09:15:57;;;;;;;27.67;4.93;;;;;;;;;;4994702;28;20257;-46
2021/03/21 09:18:35;;;;;;;32.07;4.47;;;;;;;;;;4970365;28;20197;-46
2021/03/21 09:21:15;;;;;;;24.87;4.20;;;;;;;;;;4986081;28;20196;-46
2021/03/21 09:24:01;;;;;;;14.80;4.23;;;;;;;;;;4984945;28;20191;-47
2021/03/21 09:26:38;;;;;;;24.00;4.30;;;;;;;;;;4989013;28;20211;-46
2021/03/21 09:29:31;;;;;;;25.37;4.67;;;;;;;;;;4988695;28;20199;-46
2021/03/21 09:32:02;;;;;;;20.90;3.83;;;;;;;;;;4985440;28;20562;-47
2021/03/21 09:34:52;;;;;;;20.10;4.60;;;;;;;;;;4986380;28;20877;-46
2021/03/21 09:37:22;;;;;;;24.03;4.43;;;;;;;;;;4988389;28;20227;-47
2021/03/21 09:40:00;;;;;;;26.80;4.23;;;;;;;;;;4987405;28;20304;-46
2021/03/21 09:42:25;;;;;;;21.03;4.17;;;;;;;;;;4983249;28;20257;-47
2021/03/21 09:44:51;;;;;;;22.03;4.33;;;;;;;;;;4980504;28;20243;-46
2021/03/21 09:47:31;;;;;;;17.70;3.90;;;;;;;;;;4987464;28;20557;-46
2021/03/21 09:50:23;;;;;;;26.43;5.57;;;;;;;;;;4988078;28;20226;-46
2021/03/21 09:53:07;;;;;;;19.53;4.20;;;;;;;;;;4981420;28;20589;-46
2021/03/21 09:55:53;;;;;;;21.90;4.70;;;;;;;;;;4952161;28;20212;-47
2021/03/21 09:58:49;;;;;;;21.23;4.93;;;;;;;;;;4983729;28;20207;-47
2021/03/21 10:01:43;;;;;;;23.00;4.53;;;;;;;;;;4965946;28;20279;-46
2021/03/21 10:04:52;;;;;;;23.37;5.63;;;;;;;;;;4983300;28;20226;-47
2021/03/21 10:07:25;;;;;;;21.30;4.93;;;;;;;;;;4907160;29;20687;-46
2021/03/21 10:09:51;;;;;;;22.30;4.70;;;;;;;;;;4971034;28;20207;-47
2021/03/21 10:12:18;;;;;;;20.50;4.43;;;;;;;;;;4986038;28;20188;-46
2021/03/21 10:15:08;;;;;;;26.60;4.77;;;;;;;;;;4982821;28;20573;-46
2021/03/21 10:17:33;;;;;;;22.63;4.80;;;;;;;;;;4976795;28;20196;-45
2021/03/21 10:19:58;;;;;;;23.57;4.63;;;;;;;;;;4980283;28;20254;-47
2021/03/21 10:22:26;;;;;;;21.10;4.87;;;;;;;;;;4969831;28;20206;-46
2021/03/21 10:24:52;;;;;;;31.97;5.23;;;;;;;;;;4982533;28;20212;-47
2021/03/21 10:27:20;;;;;;;26.37;5.93;;;;;;;;;;4988506;28;20232;-46
2021/03/21 10:30:10;;;;;;;27.77;6.00;;;;;;;;;;4985474;28;20188;-46
2021/03/21 10:32:39;;;;;;;26.47;4.60;;;;;;;;;;4983737;28;20198;-45
2021/03/21 10:35:13;;;;;;;27.17;6.13;;;;;;;;;;4985223;28;20724;-47
2021/03/21 10:37:42;;;;;;;27.07;5.93;;;;;;;;;;4966758;28;20202;-46
2021/03/21 10:40:13;;;;;;;29.43;5.97;;;;;;;;;;4988108;28;20616;-46
2021/03/21 10:42:45;;;;;;;26.93;4.97;;;;;;;;;;4986619;28;20196;-45
2021/03/21 10:45:49;;;;;;;19.70;5.03;;;;;;;;;;4980995;28;20703;-47
2021/03/21 10:48:14;;;;;;;21.30;5.03;;;;;;;;;;4971240;28;20207;-46
2021/03/21 10:50:42;;;;;;;31.20;6.07;;;;;;;;;;4986698;28;20188;-46
2021/03/21 10:53:25;;;;;;;25.17;4.53;;;;;;;;;;4988772;28;20235;-46
2021/03/21 10:56:09;;;;;;;23.17;5.57;;;;;;;;;;4986542;28;20683;-46
2021/03/21 10:58:34;;;;;;;23.40;5.40;;;;;;;;;;4986894;28;20192;-45
2021/03/21 11:01:25;;;;;;;28.80;6.03;;;;;;;;;;4986651;28;20195;-47
2021/03/21 11:04:18;;;;;;;26.67;5.30;;;;;;;;;;4971839;28;20219;-46
2021/03/21 11:07:12;;;;;;;39.80;6.47;;;;;;;;;;4984443;28;20192;-47
2021/03/21 11:09:50;;;;;;;24.97;6.27;;;;;;;;;;4984002;28;20576;-47
2021/03/21 11:12:16;;;;;;;21.63;5.23;;;;;;;;;;4986655;28;20278;-47
2021/03/21 11:14:41;;;;;;;26.43;5.37;;;;;;;;;;4981632;28;20295;-46
2021/03/21 11:17:25;;;;;;;30.73;6.33;;;;;;;;;;4992838;28;20581;-46
2021/03/21 11:19:53;;;;;;;29.07;5.57;;;;;;;;;;4949627;28;20286;-45
2021/03/21 11:22:33;;;;;;;24.23;5.17;;;;;;;;;;4986520;28;20560;-48
2021/03/21 11:25:00;;;;;;;30.40;6.37;;;;;;;;;;4969370;28;20339;-47
2021/03/21 11:27:34;;;;;;;27.90;6.53;;;;;;;;;;4960019;28;20254;-46
2021/03/21 11:30:27;;;;;;;29.47;6.37;;;;;;;;;;4984433;28;20286;-46
2021/03/21 11:33:14;;;;;;;32.53;6.43;;;;;;;;;;4981073;28;20724;-46
2021/03/21 11:35:39;;;;;;;40.47;6.50;;;;;;;;;;4986776;28;20222;-46
2021/03/21 11:38:26;;;;;;;34.80;6.33;;;;;;;;;;4987168;28;20652;-47
2021/03/21 11:40:55;;;;;;;35.03;5.73;;;;;;;;;;4977748;28;20188;-45
2021/03/21 11:43:20;;;;;;;29.17;5.87;;;;;;;;;;4987438;28;20247;-46
2021/03/21 11:45:46;;;;;;;32.97;6.00;;;;;;;;;;4986866;28;20216;-46
2021/03/21 11:48:20;;;;;;;30.73;5.77;;;;;;;;;;4986767;28;20282;-47
2021/03/21 11:50:47;;;;;;;36.27;6.43;;;;;;;;;;4984865;28;20191;-47
2021/03/21 11:53:21;;;;;;;32.93;6.43;;;;;;;;;;4986252;28;20632;-46
2021/03/21 11:55:52;;;;;;;34.70;7.40;;;;;;;;;;4969365;28;20223;-46
2021/03/21 11:58:31;;;;;;;34.27;6.23;;;;;;;;;;4979785;28;20226;-46
2021/03/21 12:01:04;;;;;;;21.63;5.77;;;;;;;;;;4986357;28;20195;-47
2021/03/21 12:03:44;;;;;;;41.83;6.97;;;;;;;;;;4979793;28;20791;-47
2021/03/21 12:06:21;;;;;;;33.77;7.23;;;;;;;;;;4985866;28;20400;-46
2021/03/21 12:08:47;;;;;;;29.07;6.63;;;;;;;;;;4985524;28;20275;-45
2021/03/21 12:11:24;;;;;;;31.80;6.17;;;;;;;;;;4982105;28;20267;-51
2021/03/21 12:13:51;;;;;;;30.03;6.10;;;;;;;;;;4982466;28;20200;-47
2021/03/21 12:16:35;;;;;;;25.07;5.37;;;;;;;;;;4985614;28;20207;-46
2021/03/21 12:19:03;;;;;;;36.97;6.67;;;;;;;;;;4986487;28;20196;-47
2021/03/21 12:21:36;;;;;;;27.57;6.90;;;;;;;;;;4985188;28;20520;-47
2021/03/21 12:24:07;;;;;;;31.17;6.00;;;;;;;;;;4985822;28;20384;-46
2021/03/21 12:26:33;;;;;;;34.70;6.77;;;;;;;;;;4979683;28;20585;-44
2021/03/21 12:29:02;;;;;;;25.50;5.33;;;;;;;;;;4984760;28;20195;-47
2021/03/21 12:31:30;;;;;;;28.23;6.13;;;;;;;;;;4984476;28;20565;-45
2021/03/21 12:33:56;;;;;;;32.17;7.00;;;;;;;;;;4991070;28;20188;-46
2021/03/21 12:36:26;;;;;;;27.80;5.13;;;;;;;;;;4988861;28;20216;-44
2021/03/21 12:38:58;;;;;;;29.33;5.97;;;;;;;;;;4986745;28;20184;-46
2021/03/21 12:41:38;;;;;;;27.67;5.73;;;;;;;;;;4988386;28;20192;-48
2021/03/21 12:44:10;;;;;;;36.63;6.17;;;;;;;;;;4989972;28;20184;-46
2021/03/21 12:46:58;;;;;;;23.93;4.80;;;;;;;;;;4990803;28;20188;-47
2021/03/21 12:49:51;;;;;;;23.37;5.47;;;;;;;;;;4984025;28;20679;-47
2021/03/21 12:52:42;;;;;;;26.83;6.30;;;;;;;;;;4976657;28;20694;-46
2021/03/21 12:55:10;;;;;;;29.37;6.53;;;;;;;;;;4989351;28;20219;-47
2021/03/21 12:57:35;;;;;;;28.67;6.00;;;;;;;;;;4987583;28;20194;-48
2021/03/21 13:00:00;;;;;;;29.30;5.87;;;;;;;;;;4988100;28;20196;-46
2021/03/21 13:02:34;;;;;;;26.20;5.93;;;;;;;;;;4985292;28;20550;-47
2021/03/21 13:05:03;;;;;;;23.80;5.90;;;;;;;;;;4985644;28;20239;-47
2021/03/21 13:07:29;;;;;;;29.70;6.07;;;;;;;;;;4969054;28;20650;-47
2021/03/21 13:09:55;;;;;;;24.27;5.30;;;;;;;;;;4986827;28;20250;-46
2021/03/21 13:12:22;;;;;;;23.80;6.20;;;;;;;;;;4990778;28;20217;-47
2021/03/21 13:14:49;;;;;;;20.53;4.87;;;;;;;;;;4986429;28;20215;-46
2021/03/21 13:17:14;;;;;;;21.13;4.97;;;;;;;;;;4990579;28;20279;-46
2021/03/21 13:19:40;;;;;;;25.70;6.17;;;;;;;;;;4987660;28;20346;-47
2021/03/21 13:22:07;;;;;;;27.73;5.57;;;;;;;;;;4988652;28;20393;-46
2021/03/21 13:24:33;;;;;;;26.30;6.23;;;;;;;;;;4988701;28;20228;-47
2021/03/21 13:27:03;;;;;;;23.97;5.53;;;;;;;;;;4988171;28;20286;-46
2021/03/21 13:29:29;;;;;;;23.63;4.30;;;;;;;;;;4986112;28;20195;-47
2021/03/21 13:31:54;;;;;;;26.33;5.33;;;;;;;;;;4989987;28;20184;-47
2021/03/21 13:34:20;;;;;;;27.20;5.23;;;;;;;;;;4984359;28;20192;-46
2021/03/21 13:36:46;;;;;;;20.23;5.40;;;;;;;;;;4965686;28;20197;-46
2021/03/21 13:39:11;;;;;;;27.23;5.27;;;;;;;;;;4985866;28;20202;-48
2021/03/21 13:41:37;;;;;;;22.20;5.50;;;;;;;;;;4983835;28;20506;-47
2021/03/21 13:44:05;;;;;;;24.63;5.67;;;;;;;;;;4985600;28;20218;-48
2021/03/21 13:46:30;;;;;;;21.47;4.90;;;;;;;;;;4985185;28;20247;-46
2021/03/21 13:48:56;;;;;;;25.37;5.20;;;;;;;;;;4985652;28;20219;-47
2021/03/21 13:51:22;;;;;;;33.40;5.37;;;;;;;;;;4989674;28;20203;-46
2021/03/21 13:53:47;;;;;;;25.67;4.93;;;;;;;;;;4982845;28;20206;-48
2021/03/21 13:56:14;;;;;;;25.17;5.03;;;;;;;;;;4983719;28;20641;-47
2021/03/21 13:58:40;;;;;;;25.27;5.27;;;;;;;;;;4989324;28;20218;-46
2021/03/21 14:01:05;;;;;;;25.30;5.73;;;;;;;;;;4972615;28;20584;-44
2021/03/21 14:03:31;;;;;;;19.57;4.70;;;;;;;;;;4986814;28;20188;-47
2021/03/21 14:05:58;;;;;;;25.63;5.53;;;;;;;;;;4984791;28;20240;-47
2021/03/21 14:08:24;;;;;;;26.07;5.40;;;;;;;;;;4986449;28;20184;-47
2021/03/21 14:10:49;;;;;;;21.50;4.73;;;;;;;;;;4980513;28;20184;-47
2021/03/21 14:13:15;;;;;;;23.90;4.90;;;;;;;;;;4989326;28;20199;-46
2021/03/21 14:15:42;;;;;;;27.67;5.33;;;;;;;;;;4985327;28;20580;-45
2021/03/21 14:18:10;;;;;;;18.30;4.63;;;;;;;;;;4987132;28;20196;-46
2021/03/21 14:20:40;;;;;;;24.43;5.63;;;;;;;;;;4987208;28;20218;-45
2021/03/21 14:23:07;;;;;;;22.13;5.27;;;;;;;;;;4971624;28;20195;-47
2021/03/21 14:25:34;;;;;;;22.90;5.60;;;;;;;;;;4970156;28;20430;-46
2021/03/21 14:28:00;;;;;;;25.87;5.40;;;;;;;;;;4986487;28;20231;-47
2021/03/21 14:30:26;;;;;;;19.70;5.00;;;;;;;;;;4988192;28;20664;-46
2021/03/21 14:32:53;;;;;;;26.63;5.23;;;;;;;;;;4971451;28;20192;-45
2021/03/21 14:35:23;;;;;;;23.27;5.37;;;;;;;;;;4975947;28;20224;-46
2021/03/21 14:37:49;;;;;;;28.73;5.33;;;;;;;;;;4987070;28;20199;-47
2021/03/21 14:40:14;;;;;;;23.67;5.77;;;;;;;;;;4988719;28;20199;-46
2021/03/21 14:42:40;;;;;;;24.43;4.77;;;;;;;;;;4976108;28;20192;-47
2021/03/21 14:45:07;;;;;;;28.33;5.40;;;;;;;;;;4983868;28;20224;-48
2021/03/21 14:47:32;;;;;;;24.47;5.87;;;;;;;;;;4985520;28;20262;-46
2021/03/21 14:49:57;;;;;;;18.97;5.03;;;;;;;;;;4986804;28;20646;-45
2021/03/21 14:52:23;;;;;;;21.97;5.43;;;;;;;;;;4988677;28;20203;-47
2021/03/21 14:54:48;;;;;;;20.03;4.47;;;;;;;;;;4981098;28;20689;-45
2021/03/21 14:57:13;;;;;;;19.50;5.00;;;;;;;;;;4985752;28;20275;-44
2021/03/21 14:59:39;;;;;;;19.37;4.53;;;;;;;;;;4984699;28;20207;-48
2021/03/21 15:02:04;;;;;;;24.50;4.67;;;;;;;;;;4989289;28;20196;-46
2021/03/21 15:04:30;;;;;;;16.37;3.87;;;;;;;;;;4980544;28;20231;-46
2021/03/21 15:06:55;;;;;;;25.23;5.33;;;;;;;;;;4969001;28;20563;-46
2021/03/21 15:09:20;;;;;;;23.77;4.63;;;;;;;;;;4982925;28;20199;-47
2021/03/21 15:11:45;;;;;;;19.53;4.90;;;;;;;;;;4988300;28;20200;-46
2021/03/21 15:14:12;;;;;;;27.30;5.07;;;;;;;;;;4982321;28;20202;-47
2021/03/21 15:16:37;;;;;;;25.47;5.40;;;;;;;;;;4971934;28;20192;-46
2021/03/21 15:19:03;;;;;;;22.13;5.00;;;;;;;;;;4986562;28;20707;-47